createdAt,value
2022-09-10T00:00:58.568Z,2.00
2022-09-10T00:04:01.217Z,1.95
2022-09-10T00:07:04.220Z,2.10
2022-09-10T00:10:07.366Z,2.03
2022-09-10T00:13:10.938Z,1.80
2022-09-10T00:16:14.126Z,1.80
2022-09-10T00:19:17.372Z,1.90
2022-09-10T00:22:20.288Z,1.70
2022-09-10T00:25:23.096Z,1.85
2022-09-10T00:28:25.983Z,1.83
2022-09-10T00:31:28.369Z,1.73
2022-09-10T00:34:30.881Z,1.70
2022-09-10T00:37:33.524Z,1.73
2022-09-10T00:40:36.071Z,1.60
2022-09-10T00:43:38.393Z,1.85
2022-09-10T00:46:40.846Z,1.85
2022-09-10T00:49:43.027Z,1.90
2022-09-10T00:52:45.511Z,1.50
2022-09-10T00:55:48.056Z,1.58
2022-09-10T00:58:50.302Z,1.90
2022-09-10T01:01:53.038Z,2.08
2022-09-10T01:04:55.836Z,1.92
2022-09-10T01:07:58.676Z,1.60
2022-09-10T01:11:01.533Z,1.80
2022-09-10T01:14:05.182Z,1.90
2022-09-10T01:17:08.375Z,1.80
2022-09-10T01:20:11.578Z,1.80
2022-09-10T01:23:17.603Z,1.90
2022-09-10T01:26:21.122Z,2.00
2022-09-10T01:29:24.327Z,2.10
2022-09-10T01:32:28.021Z,2.15
2022-09-10T01:35:30.572Z,2.22
2022-09-10T01:38:33.863Z,2.30
2022-09-10T01:41:37.257Z,2.22
2022-09-10T01:44:39.924Z,2.40
2022-09-10T01:47:42.458Z,2.50
2022-09-10T01:50:44.651Z,2.65
2022-09-10T01:53:47.109Z,2.67
2022-09-10T01:56:49.870Z,3.10
2022-09-10T01:59:52.874Z,2.38
2022-09-10T02:02:55.999Z,2.60
2022-09-10T02:06:03.866Z,2.58
2022-09-10T02:09:09.894Z,2.90
2022-09-10T02:12:13.995Z,2.97
2022-09-10T02:15:36.410Z,3.55
2022-09-10T02:21:57.500Z,2.83
2022-09-10T02:25:00.471Z,3.10
2022-09-10T02:28:03.284Z,3.30
2022-09-10T02:31:05.578Z,3.15
2022-09-10T02:34:07.722Z,3.00
2022-09-10T02:37:10.242Z,3.47
2022-09-10T02:40:14.841Z,3.28
2022-09-10T02:43:17.059Z,3.33
2022-09-10T02:46:19.642Z,3.28
2022-09-10T02:49:22.076Z,3.58
2022-09-10T02:52:24.931Z,3.42
2022-09-10T02:55:27.349Z,3.45
2022-09-10T02:58:29.885Z,3.55
2022-09-10T03:01:34.008Z,3.90
2022-09-10T03:04:39.451Z,3.67
2022-09-10T03:07:41.924Z,3.85
2022-09-10T03:10:44.679Z,3.60
2022-09-10T03:13:47.071Z,3.97
2022-09-10T03:16:49.401Z,4.05
2022-09-10T03:19:52.301Z,4.07
2022-09-10T03:22:56.712Z,4.30
2022-09-10T03:25:59.531Z,4.15
2022-09-10T03:29:02.337Z,4.60
2022-09-10T03:32:10.237Z,4.32
2022-09-10T03:35:14.492Z,4.20
2022-09-10T03:38:17.334Z,4.15
2022-09-10T03:41:20.266Z,4.38
2022-09-10T03:44:23.172Z,3.95
2022-09-10T03:47:25.773Z,4.32
2022-09-10T03:50:28.445Z,4.10
2022-09-10T03:53:31.050Z,4.65
2022-09-10T03:56:33.669Z,4.55
2022-09-10T03:59:36.232Z,4.57
2022-09-10T04:02:39.629Z,4.82
2022-09-10T04:05:43.270Z,4.47
2022-09-10T04:08:45.897Z,5.05
2022-09-10T04:11:50.557Z,4.80
2022-09-10T04:14:55.905Z,5.00
2022-09-10T04:18:00.392Z,4.88
2022-09-10T04:21:02.760Z,4.60
2022-09-10T04:24:05.102Z,5.00
2022-09-10T04:27:07.709Z,4.95
2022-09-10T04:30:10.550Z,4.78
2022-09-10T04:33:13.500Z,4.78
2022-09-10T04:36:17.172Z,4.53
2022-09-10T04:39:19.790Z,4.55
2022-09-10T04:42:24.427Z,4.78
2022-09-10T04:45:28.325Z,4.85
2022-09-10T04:48:31.026Z,5.35
2022-09-10T04:51:33.275Z,4.97
2022-09-10T04:54:36.385Z,5.13
2022-09-10T04:57:38.978Z,5.28
2022-09-10T05:00:42.313Z,5.40
2022-09-10T05:03:45.138Z,4.97
2022-09-10T05:06:48.326Z,4.90
2022-09-10T05:09:51.206Z,4.60
2022-09-10T05:12:54.279Z,5.43
2022-09-10T05:15:58.949Z,5.32
2022-09-10T05:19:01.573Z,5.10
2022-09-10T05:22:07.976Z,4.90
2022-09-10T05:25:10.659Z,4.90
2022-09-10T05:28:13.678Z,4.88
2022-09-10T05:31:16.768Z,4.80
2022-09-10T05:34:20.209Z,4.65
2022-09-10T05:37:22.787Z,4.68
2022-09-10T05:40:25.667Z,4.75
2022-09-10T05:43:29.943Z,4.55
2022-09-10T05:46:33.949Z,4.38
2022-09-10T05:49:44.113Z,4.55
2022-09-10T05:52:46.712Z,4.20
2022-09-10T05:55:49.362Z,4.55
2022-09-10T05:58:52.850Z,4.95
2022-09-10T06:01:55.729Z,4.28
2022-09-10T06:04:59.485Z,4.60
2022-09-10T06:08:06.688Z,4.80
2022-09-10T06:11:12.577Z,4.28
2022-09-10T06:14:19.370Z,4.53
2022-09-10T06:17:22.294Z,4.50
2022-09-10T06:20:26.749Z,4.38
2022-09-10T06:23:29.500Z,5.97
2022-09-10T06:26:32.884Z,5.57
2022-09-10T06:32:44.526Z,11.88
2022-09-10T06:35:49.268Z,15.65
2022-09-10T06:38:54.216Z,15.70
2022-09-10T06:41:57.254Z,17.25
2022-09-10T06:45:26.162Z,17.45
2022-09-10T06:48:49.016Z,17.58
2022-09-10T06:51:54.109Z,20.08
2022-09-10T06:54:56.866Z,21.27
2022-09-10T06:58:11.414Z,23.60
2022-09-10T07:01:15.098Z,19.80
2022-09-10T07:04:22.203Z,17.47
2022-09-10T07:07:25.005Z,19.13
2022-09-10T07:10:28.095Z,19.08
2022-09-10T07:13:30.494Z,17.20
2022-09-10T07:16:34.171Z,18.05
2022-09-10T07:19:36.665Z,17.55
2022-09-10T07:22:44.352Z,17.17
2022-09-10T07:25:49.121Z,17.30
2022-09-10T07:29:10.850Z,17.02
2022-09-10T07:32:13.749Z,16.13
2022-09-10T07:35:16.968Z,17.27
2022-09-10T07:38:19.989Z,15.93
2022-09-10T07:41:24.301Z,15.68
2022-09-10T07:44:27.353Z,14.80
2022-09-10T07:47:33.894Z,14.98
2022-09-10T07:50:36.838Z,14.07
2022-09-10T07:53:47.548Z,13.80
2022-09-10T07:56:53.190Z,14.30
2022-09-10T07:59:55.760Z,14.70
2022-09-10T08:02:59.716Z,13.75
2022-09-10T08:06:02.752Z,12.93
2022-09-10T08:09:05.505Z,13.60
2022-09-10T08:12:09.188Z,13.52
2022-09-10T08:15:11.565Z,12.73
2022-09-10T08:18:15.874Z,12.45
2022-09-10T08:21:18.137Z,11.75
2022-09-10T08:24:22.096Z,11.68
2022-09-10T08:27:25.860Z,11.75
2022-09-10T08:30:29.766Z,11.70
2022-09-10T08:33:33.509Z,9.05
2022-09-10T08:36:36.332Z,8.50
2022-09-10T08:39:39.006Z,7.50
2022-09-10T08:42:42.288Z,6.30
2022-09-10T08:45:45.642Z,5.70
2022-09-10T08:48:48.950Z,6.43
2022-09-10T08:51:52.158Z,6.30
2022-09-10T08:54:55.249Z,6.25
2022-09-10T08:57:58.261Z,5.45
2022-09-10T09:01:01.185Z,5.38
2022-09-10T09:04:06.273Z,6.57
2022-09-10T09:07:10.058Z,7.97
2022-09-10T09:10:12.645Z,9.35
2022-09-10T09:13:15.454Z,9.40
2022-09-10T09:16:19.075Z,9.88
2022-09-10T09:19:22.399Z,9.50
2022-09-10T09:22:25.687Z,10.25
2022-09-10T09:25:29.520Z,10.35
2022-09-10T09:28:41.014Z,13.40
2022-09-10T09:31:43.614Z,12.73
2022-09-10T09:34:45.536Z,12.38
2022-09-10T09:37:51.659Z,12.05
2022-09-10T09:40:54.893Z,13.43
2022-09-10T09:43:57.672Z,13.27
2022-09-10T09:47:01.188Z,13.05
2022-09-10T09:50:04.547Z,12.85
2022-09-10T09:53:07.007Z,12.52
2022-09-10T09:56:09.470Z,13.40
2022-09-10T09:59:15.059Z,11.75
2022-09-10T10:02:17.696Z,12.38
2022-09-10T10:05:20.313Z,12.82
2022-09-10T10:08:23.301Z,13.55
2022-09-10T10:11:25.799Z,12.38
2022-09-10T10:14:28.311Z,12.02
2022-09-10T10:17:30.674Z,11.07
2022-09-10T10:20:33.298Z,11.30
2022-09-10T10:23:36.261Z,11.40
2022-09-10T10:26:38.708Z,8.77
2022-09-10T10:29:41.817Z,10.05
2022-09-10T10:32:45.569Z,12.23
2022-09-10T10:35:48.493Z,10.57
2022-09-10T10:38:50.716Z,8.02
2022-09-10T10:41:53.020Z,7.55
2022-09-10T10:44:56.333Z,7.28
2022-09-10T10:47:58.445Z,7.65
2022-09-10T10:51:01.052Z,7.05
2022-09-10T10:54:03.453Z,5.03
2022-09-10T10:57:06.298Z,4.00
2022-09-10T11:00:08.734Z,2.67
2022-09-10T11:03:11.251Z,2.50
2022-09-10T11:06:13.353Z,2.00
2022-09-10T11:09:16.115Z,1.80
2022-09-10T11:12:18.658Z,1.80
2022-09-10T11:15:21.244Z,1.60
2022-09-10T11:18:23.666Z,2.17
2022-09-10T11:21:27.000Z,2.22
2022-09-10T11:24:30.109Z,2.65
2022-09-10T11:27:33.660Z,3.60
2022-09-10T11:30:36.761Z,4.70
2022-09-10T11:33:40.644Z,3.72
2022-09-10T11:36:43.571Z,3.60
2022-09-10T11:39:46.366Z,2.70
2022-09-10T11:42:48.794Z,2.83
2022-09-10T11:45:50.959Z,2.22
2022-09-10T11:48:53.556Z,2.03
2022-09-10T11:51:56.176Z,1.80
2022-09-10T11:54:59.205Z,1.50
2022-09-10T11:58:02.593Z,1.35
2022-09-10T12:01:05.209Z,1.15
2022-09-10T12:04:07.834Z,1.30
2022-09-10T12:07:10.375Z,1.13
2022-09-10T12:10:14.543Z,1.00
2022-09-10T12:13:16.952Z,1.50
2022-09-10T12:16:19.864Z,2.38
2022-09-10T12:19:22.746Z,2.20
2022-09-10T12:22:25.562Z,2.00
2022-09-10T12:25:33.070Z,2.30
2022-09-10T12:28:36.762Z,2.10
2022-09-10T12:31:39.634Z,1.40
2022-09-10T12:34:42.538Z,0.93
2022-09-10T12:37:46.508Z,0.80
2022-09-10T12:40:49.331Z,0.60
2022-09-10T12:43:52.279Z,0.70
2022-09-10T12:46:55.165Z,1.27
2022-09-10T12:49:57.698Z,1.40
2022-09-10T12:53:00.469Z,1.20
2022-09-10T12:56:03.325Z,1.10
2022-09-10T12:59:05.790Z,0.98
2022-09-10T13:02:08.492Z,1.00
2022-09-10T13:05:12.225Z,1.08
2022-09-10T13:08:15.414Z,1.27
2022-09-10T13:11:18.236Z,1.40
2022-09-10T13:14:21.155Z,1.27
2022-09-10T13:17:23.984Z,1.13
2022-09-10T13:20:26.912Z,1.10
2022-09-10T13:23:29.268Z,1.10
2022-09-10T13:26:32.224Z,1.30
2022-09-10T13:29:35.553Z,1.23
2022-09-10T13:32:38.428Z,1.30
2022-09-10T13:35:41.497Z,1.33
2022-09-10T13:38:44.272Z,1.48
2022-09-10T13:41:46.774Z,1.70
2022-09-10T13:44:49.220Z,1.70
2022-09-10T13:47:52.453Z,1.73
2022-09-10T13:50:55.301Z,1.40
2022-09-10T13:53:57.420Z,1.50
2022-09-10T13:57:00.344Z,1.50
2022-09-10T14:00:02.682Z,1.30
2022-09-10T14:03:06.172Z,1.30
2022-09-10T14:06:08.649Z,1.70
2022-09-10T14:09:11.877Z,1.42
2022-09-10T14:12:14.720Z,1.60
2022-09-10T14:15:17.228Z,1.40
2022-09-10T14:18:20.005Z,1.50
2022-09-10T14:21:22.900Z,1.10
2022-09-10T14:24:26.079Z,1.02
2022-09-10T14:27:29.348Z,1.45
2022-09-10T14:30:32.164Z,2.03
2022-09-10T14:33:35.107Z,1.50
2022-09-10T14:36:38.339Z,1.50
2022-09-10T14:39:41.616Z,1.90
2022-09-10T14:42:44.826Z,1.60
2022-09-10T14:45:47.733Z,1.50
2022-09-10T14:48:50.410Z,1.60
2022-09-10T14:51:52.888Z,1.45
2022-09-10T14:54:55.323Z,1.33
2022-09-10T14:57:57.865Z,1.30
2022-09-10T15:01:00.608Z,1.40
2022-09-10T15:04:03.518Z,1.73
2022-09-10T15:07:06.045Z,1.50
2022-09-10T15:10:08.886Z,2.10
2022-09-10T15:13:11.823Z,1.80
2022-09-10T15:16:14.694Z,2.00
2022-09-10T15:19:16.874Z,1.90
2022-09-10T15:22:19.770Z,1.95
2022-09-10T15:25:22.955Z,1.60
2022-09-10T15:28:26.120Z,2.00
2022-09-10T15:31:32.647Z,1.77
2022-09-10T15:34:35.581Z,1.85
2022-09-10T15:37:37.980Z,2.00
2022-09-10T15:40:40.378Z,2.10
2022-09-10T15:43:43.272Z,2.20
2022-09-10T15:46:45.593Z,2.50
2022-09-10T15:49:48.840Z,2.50
2022-09-10T15:52:51.594Z,3.17
2022-09-10T15:55:54.772Z,2.63
2022-09-10T15:58:57.885Z,2.90
2022-09-10T16:02:00.667Z,3.15
2022-09-10T16:05:03.517Z,3.65
2022-09-10T16:08:06.370Z,3.55
2022-09-10T16:11:09.276Z,3.22
2022-09-10T16:14:11.633Z,3.78
2022-09-10T16:17:13.740Z,3.58
2022-09-10T16:20:16.405Z,3.90
2022-09-10T16:23:19.561Z,3.88
2022-09-10T16:26:22.770Z,3.75
2022-09-10T16:29:25.666Z,3.58
2022-09-10T16:32:28.141Z,3.83
2022-09-10T16:35:30.796Z,3.50
2022-09-10T16:38:32.879Z,3.70
2022-09-10T16:41:35.041Z,3.70
2022-09-10T16:44:37.601Z,3.45
2022-09-10T16:47:40.532Z,3.47
2022-09-10T16:50:43.433Z,3.70
2022-09-10T16:53:45.954Z,4.00
2022-09-10T16:56:48.964Z,3.83
2022-09-10T16:59:52.297Z,3.83
2022-09-10T17:02:54.979Z,4.43
2022-09-10T17:05:57.548Z,5.07
2022-09-10T17:08:59.907Z,4.75
2022-09-10T17:12:03.263Z,4.70
2022-09-10T17:15:05.527Z,4.35
2022-09-10T17:18:08.418Z,4.57
2022-09-10T17:21:11.514Z,5.30
2022-09-10T17:24:13.900Z,5.70
2022-09-10T17:27:16.262Z,5.60
2022-09-10T17:30:19.250Z,6.22
2022-09-10T17:33:24.479Z,6.00
2022-09-10T17:36:29.410Z,6.10
2022-09-10T17:39:32.221Z,5.97
2022-09-10T17:42:34.401Z,5.40
2022-09-10T17:45:37.353Z,5.40
2022-09-10T17:48:40.746Z,6.10
2022-09-10T17:51:43.372Z,6.60
2022-09-10T17:54:46.064Z,7.57
2022-09-10T17:57:49.605Z,7.40
2022-09-10T18:00:52.059Z,8.02
2022-09-10T18:03:54.994Z,8.45
2022-09-10T18:06:57.731Z,8.05
2022-09-10T18:10:01.029Z,6.30
2022-09-10T18:13:03.879Z,4.88
2022-09-10T18:16:06.434Z,5.32
2022-09-10T18:19:13.842Z,4.32
2022-09-10T18:22:16.578Z,4.23
2022-09-10T18:25:19.224Z,4.53
2022-09-10T18:28:21.856Z,4.13
2022-09-10T18:31:24.892Z,4.55
2022-09-10T18:34:27.772Z,4.20
2022-09-10T18:37:30.923Z,4.28
2022-09-10T18:40:33.844Z,4.45
2022-09-10T18:43:36.758Z,4.50
2022-09-10T18:46:39.610Z,4.28
2022-09-10T18:49:42.483Z,4.20
2022-09-10T18:52:44.933Z,4.40
2022-09-10T18:55:47.767Z,4.60
2022-09-10T18:58:51.107Z,4.40
2022-09-10T19:01:54.350Z,4.07
2022-09-10T19:05:12.789Z,4.50
2022-09-10T19:08:15.712Z,4.30
2022-09-10T19:11:18.648Z,4.15
2022-09-10T19:14:21.849Z,4.13
2022-09-10T19:17:24.464Z,3.90
2022-09-10T19:20:27.274Z,3.92
2022-09-10T19:23:29.382Z,4.18
2022-09-10T19:26:31.859Z,3.97
2022-09-10T19:29:35.043Z,4.05
2022-09-10T19:32:37.170Z,3.60
2022-09-10T19:35:39.361Z,4.25
2022-09-10T19:38:41.830Z,4.25
2022-09-10T19:41:45.065Z,4.30
2022-09-10T19:44:47.877Z,4.25
2022-09-10T19:47:50.442Z,4.45
2022-09-10T19:50:53.395Z,4.32
2022-09-10T19:53:55.848Z,4.50
2022-09-10T19:56:58.249Z,4.60
2022-09-10T20:00:00.819Z,4.40
2022-09-10T20:03:02.955Z,4.28
2022-09-10T20:06:05.419Z,4.45
2022-09-10T20:09:09.160Z,4.50
2022-09-10T20:12:11.970Z,4.18
2022-09-10T20:15:15.085Z,4.03
2022-09-10T20:18:17.991Z,4.13
2022-09-10T20:21:20.524Z,3.90
2022-09-10T20:24:22.752Z,4.25
2022-09-10T20:27:25.367Z,4.15
2022-09-10T20:30:28.460Z,3.88
2022-09-10T20:33:31.316Z,3.95
2022-09-10T20:36:33.435Z,4.10
2022-09-10T20:39:36.447Z,4.15
2022-09-10T20:42:39.435Z,4.05
2022-09-10T20:45:41.882Z,4.28
2022-09-10T20:48:48.970Z,4.30
2022-09-10T20:51:52.292Z,4.38
2022-09-10T20:54:54.806Z,3.90
2022-09-10T20:57:57.933Z,4.72
2022-09-10T21:01:00.123Z,3.92
2022-09-10T21:04:02.703Z,4.00
2022-09-10T21:07:05.068Z,4.15
2022-09-10T21:10:08.324Z,4.18
2022-09-10T21:13:11.255Z,4.10
2022-09-10T21:16:13.465Z,4.20
2022-09-10T21:19:16.130Z,3.75
2022-09-10T21:22:19.037Z,4.00
2022-09-10T21:25:21.734Z,4.13
2022-09-10T21:28:24.963Z,3.97
2022-09-10T21:31:28.057Z,4.00
2022-09-10T21:34:31.074Z,4.30
2022-09-10T21:37:34.297Z,4.07
2022-09-10T21:40:36.951Z,4.38
2022-09-10T21:43:39.309Z,4.05
2022-09-10T21:46:41.929Z,4.10
2022-09-10T21:49:44.274Z,4.32
2022-09-10T21:52:47.085Z,3.80
2022-09-10T21:55:50.850Z,4.28
2022-09-10T21:58:53.353Z,4.18
2022-09-10T22:01:56.995Z,4.28
2022-09-10T22:05:00.924Z,4.32
2022-09-10T22:08:02.994Z,4.28
2022-09-10T22:11:05.625Z,4.15
2022-09-10T22:14:08.057Z,4.10
2022-09-10T22:17:11.012Z,4.10
2022-09-10T22:20:14.282Z,4.72
2022-09-10T22:23:17.112Z,4.32
2022-09-10T22:26:19.199Z,4.20
2022-09-10T22:29:22.238Z,4.50
2022-09-10T22:32:24.990Z,4.28
2022-09-10T22:35:28.161Z,4.15
2022-09-10T22:38:31.072Z,4.47
2022-09-10T22:41:33.956Z,4.38
2022-09-10T22:44:36.700Z,3.97
2022-09-10T22:47:39.604Z,4.60
2022-09-10T22:50:42.173Z,5.00
2022-09-10T22:53:44.971Z,4.40
2022-09-10T22:56:47.133Z,4.40
2022-09-10T22:59:49.405Z,4.45
2022-09-10T23:02:52.285Z,4.50
2022-09-10T23:05:55.086Z,4.70
2022-09-10T23:08:58.108Z,4.53
2022-09-10T23:12:01.279Z,4.47
2022-09-10T23:15:04.407Z,4.40
2022-09-10T23:18:07.241Z,4.90
2022-09-10T23:21:09.433Z,4.65
2022-09-10T23:24:11.588Z,4.47
2022-09-10T23:27:14.249Z,4.60
2022-09-10T23:30:16.969Z,4.50
2022-09-10T23:33:20.224Z,4.53
2022-09-10T23:36:22.666Z,5.00
2022-09-10T23:39:25.653Z,4.65
2022-09-10T23:42:28.222Z,4.90
2022-09-10T23:45:31.577Z,4.78
2022-09-10T23:48:34.120Z,4.85
2022-09-10T23:51:36.292Z,5.03
2022-09-10T23:54:39.256Z,5.07
2022-09-10T23:57:42.045Z,5.18
